Time;durP1;ratioP1;P1;durP2;ratioP2;P2;SDS_P1;SDS_P2;PMS_P1;PMS_P2;Temp;Humidity;BMP_temperature;BMP_pressure;BME280_temperature;BME280_humidity;BME280_pressure;Samples;Min_cycle;Max_cycle;Signal;HPM_P1;HPM_P2
2022/09/08 00:01:12;;;;;;;7.63;6.23;;;19.70;99.90;;;;;;5099657;28;20548;-79
2022/09/08 00:03:39;;;;;;;6.20;5.60;;;19.70;99.90;;;;;;5114157;28;20434;-79
2022/09/08 00:06:10;;;;;;;9.00;5.40;;;19.70;99.90;;;;;;5100364;28;20559;-79
2022/09/08 00:08:38;;;;;;;7.60;6.47;;;19.70;99.90;;;;;;5099080;28;20507;-79
2022/09/08 00:11:08;;;;;;;7.10;6.13;;;19.60;99.90;;;;;;5098440;28;20474;-79
2022/09/08 00:13:37;;;;;;;9.00;5.70;;;19.60;99.90;;;;;;5097713;28;20449;-79
2022/09/08 00:16:05;;;;;;;7.80;7.00;;;19.60;99.90;;;;;;5100067;28;20469;-79
2022/09/08 00:18:32;;;;;;;6.93;6.10;;;19.60;99.90;;;;;;5102041;28;20619;-79
2022/09/08 00:21:00;;;;;;;8.77;7.00;;;19.60;99.90;;;;;;5102885;28;20535;-79
2022/09/08 00:23:28;;;;;;;7.57;6.47;;;19.50;99.90;;;;;;5099958;28;20523;-79
2022/09/08 00:25:55;;;;;;;8.63;6.90;;;19.50;99.90;;;;;;5100367;28;20478;-79
2022/09/08 00:28:22;;;;;;;9.30;7.17;;;19.50;99.90;;;;;;5100193;28;20517;-79
2022/09/08 00:30:48;;;;;;;8.23;7.20;;;19.50;99.90;;;;;;5102196;28;20518;-79
2022/09/08 00:33:15;;;;;;;8.03;6.17;;;19.50;99.90;;;;;;5099948;28;20986;-78
2022/09/08 00:35:43;;;;;;;6.90;6.20;;;19.50;99.90;;;;;;5102501;28;20449;-79
2022/09/08 00:38:12;;;;;;;8.27;6.80;;;19.50;99.90;;;;;;5102003;28;20529;-80
2022/09/08 00:40:45;;;;;;;11.43;6.87;;;19.50;99.90;;;;;;5102557;28;20466;-80
2022/09/08 00:43:30;;;;;;;8.67;6.23;;;19.50;99.90;;;;;;5102375;28;20493;-79
2022/09/08 00:45:59;;;;;;;7.70;6.90;;;19.50;99.90;;;;;;5109266;28;20484;-78
2022/09/08 00:48:26;;;;;;;7.83;6.80;;;19.50;99.90;;;;;;5116222;28;20446;-79
2022/09/08 00:50:54;;;;;;;8.10;6.60;;;19.50;99.90;;;;;;5116247;28;20461;-79
2022/09/08 00:53:21;;;;;;;7.50;6.50;;;19.50;99.90;;;;;;5113966;28;20455;-79
2022/09/08 00:55:49;;;;;;;9.77;6.47;;;19.50;99.90;;;;;;5115839;28;20470;-80
2022/09/08 00:58:16;;;;;;;8.33;6.50;;;19.60;99.90;;;;;;5103027;28;20442;-79
2022/09/08 01:00:44;;;;;;;7.83;6.30;;;19.60;99.90;;;;;;5102359;28;20513;-80
2022/09/08 01:03:15;;;;;;;7.43;6.70;;;19.60;99.90;;;;;;5100989;28;20474;-80
2022/09/08 01:05:49;;;;;;;8.13;6.90;;;19.60;99.90;;;;;;5100698;28;20544;-79
2022/09/08 01:14:06;;;;;;;7.77;6.10;;;19.60;99.90;;;;;;5103550;28;20561;-79
2022/09/08 01:16:40;;;;;;;7.17;6.10;;;19.60;99.90;;;;;;5102086;28;21215;-79
2022/09/08 01:19:13;;;;;;;10.27;6.27;;;19.60;99.90;;;;;;5098695;28;20821;-79
2022/09/08 01:21:53;;;;;;;6.47;5.30;;;19.70;99.90;;;;;;5099705;28;20489;-78
2022/09/08 01:24:41;;;;;;;8.90;5.50;;;19.70;99.90;;;;;;5099181;28;20521;-79
2022/09/08 01:27:21;;;;;;;6.17;4.93;;;19.70;99.90;;;;;;5078639;28;20466;-78
2022/09/08 01:29:50;;;;;;;5.80;5.20;;;19.60;99.90;;;;;;5080595;28;20457;-79
2022/09/08 01:32:19;;;;;;;7.43;5.00;;;19.70;99.90;;;;;;5104793;28;20458;-78
2022/09/08 01:34:46;;;;;;;5.40;4.90;;;19.70;99.90;;;;;;5104096;28;20446;-79
2022/09/08 01:37:13;;;;;;;5.10;4.60;;;19.70;99.90;;;;;;5112683;28;20477;-79
2022/09/08 01:39:40;;;;;;;5.20;4.07;;;19.80;99.90;;;;;;5094102;28;20534;-78
2022/09/08 01:42:07;;;;;;;6.87;4.97;;;19.80;99.90;;;;;;5112393;28;20507;-79
2022/09/08 01:44:35;;;;;;;6.43;5.00;;;19.80;99.90;;;;;;5110769;28;20476;-78
2022/09/08 01:47:02;;;;;;;6.97;4.60;;;19.80;99.90;;;;;;5109580;28;20602;-77
2022/09/08 01:49:29;;;;;;;5.67;5.00;;;19.80;99.90;;;;;;5109288;28;20472;-78
2022/09/08 01:51:56;;;;;;;6.40;5.17;;;19.80;99.90;;;;;;5110464;28;20803;-77
2022/09/08 01:54:23;;;;;;;5.23;4.40;;;19.80;99.90;;;;;;5108559;28;20452;-77
2022/09/08 01:56:50;;;;;;;5.70;5.10;;;19.80;99.90;;;;;;5110678;28;20534;-77
2022/09/08 01:59:17;;;;;;;6.40;5.07;;;19.80;99.90;;;;;;5110898;28;20483;-77
2022/09/08 02:01:45;;;;;;;7.03;4.77;;;19.90;99.90;;;;;;5109640;28;20470;-77
2022/09/08 02:04:11;;;;;;;5.07;4.57;;;19.80;99.90;;;;;;5109302;28;20517;-78
2022/09/08 02:06:38;;;;;;;5.60;4.87;;;19.80;99.90;;;;;;5110264;28;20473;-78
2022/09/08 02:09:06;;;;;;;7.17;4.77;;;19.80;99.90;;;;;;5108502;28;20518;-77
2022/09/08 02:11:33;;;;;;;6.03;5.10;;;19.80;99.90;;;;;;5109819;28;20544;-77
2022/09/08 02:14:00;;;;;;;4.97;3.80;;;19.80;99.90;;;;;;5108420;28;20459;-78
2022/09/08 02:16:27;;;;;;;7.40;5.50;;;19.90;99.90;;;;;;5108996;28;21002;-77
2022/09/08 02:18:55;;;;;;;8.80;5.40;;;19.70;99.90;;;;;;5107034;28;20457;-78
2022/09/08 02:21:23;;;;;;;4.80;4.30;;;19.70;99.90;;;;;;5107636;28;20451;-78
2022/09/08 02:23:51;;;;;;;7.40;4.30;;;19.80;99.90;;;;;;5108143;28;20481;-78
2022/09/08 02:26:20;;;;;;;4.73;4.20;;;19.80;99.90;;;;;;5107500;28;20544;-78
2022/09/08 02:28:47;;;;;;;4.30;3.63;;;19.90;99.90;;;;;;5109854;28;20453;-77
2022/09/08 02:31:14;;;;;;;5.80;4.23;;;19.90;99.90;;;;;;5110665;28;20471;-77
2022/09/08 02:33:41;;;;;;;6.50;4.60;;;19.90;99.90;;;;;;5108402;28;20514;-77
2022/09/08 02:36:10;;;;;;;5.40;3.90;;;19.90;99.90;;;;;;5109776;28;20469;-78
2022/09/08 02:38:37;;;;;;;4.73;4.20;;;19.90;99.90;;;;;;5109195;28;20525;-78
2022/09/08 02:41:04;;;;;;;8.90;4.63;;;19.90;99.90;;;;;;5107785;28;20525;-77
2022/09/08 02:43:31;;;;;;;4.20;3.80;;;19.90;99.90;;;;;;5095854;28;20525;-77
2022/09/08 02:46:04;;;;;;;5.60;4.20;;;19.90;99.90;;;;;;5096759;28;20476;-77
2022/09/08 02:48:31;;;;;;;6.80;4.30;;;19.90;99.90;;;;;;5096137;28;20452;-77
2022/09/08 02:50:59;;;;;;;4.33;3.67;;;19.80;99.90;;;;;;5075034;28;20470;-77
2022/09/08 02:53:27;;;;;;;6.57;4.87;;;19.90;99.90;;;;;;5074208;28;20835;-77
2022/09/08 02:55:54;;;;;;;4.00;3.57;;;19.90;99.90;;;;;;5100096;28;20476;-78
2022/09/08 02:58:21;;;;;;;4.10;3.60;;;19.90;99.90;;;;;;5100162;28;20460;-77
2022/09/08 03:00:48;;;;;;;5.00;3.20;;;19.90;99.90;;;;;;5098200;28;20453;-78
2022/09/08 03:03:15;;;;;;;3.53;3.17;;;19.90;99.90;;;;;;5098422;28;20483;-77
2022/09/08 03:05:42;;;;;;;5.73;3.80;;;19.90;99.90;;;;;;5099511;28;20456;-78
2022/09/08 03:08:09;;;;;;;4.80;3.70;;;19.90;99.90;;;;;;5100289;28;20467;-77
2022/09/08 03:10:38;;;;;;;4.77;3.60;;;19.90;99.90;;;;;;5098255;28;20462;-78
2022/09/08 03:13:05;;;;;;;4.70;3.60;;;19.90;99.90;;;;;;5098716;28;20450;-78
2022/09/08 03:15:32;;;;;;;5.10;3.70;;;19.90;99.90;;;;;;5100533;28;20973;-78
2022/09/08 03:18:01;;;;;;;4.53;3.50;;;19.90;99.90;;;;;;5098123;28;20818;-78
2022/09/08 03:20:27;;;;;;;4.70;3.53;;;19.90;99.90;;;;;;5098665;28;20453;-78
2022/09/08 03:22:54;;;;;;;4.10;3.20;;;19.90;99.90;;;;;;5099990;28;20485;-77
2022/09/08 03:25:21;;;;;;;7.20;3.60;;;19.90;99.90;;;;;;5098347;28;20452;-78
2022/09/08 03:27:49;;;;;;;4.37;3.47;;;19.90;99.90;;;;;;5098754;28;20488;-78
2022/09/08 03:30:17;;;;;;;4.20;3.47;;;19.90;99.90;;;;;;5100194;28;20529;-78
2022/09/08 03:32:46;;;;;;;7.50;3.37;;;19.90;99.90;;;;;;5100312;28;20484;-76
2022/09/08 03:35:15;;;;;;;5.73;3.63;;;19.80;99.90;;;;;;5098551;28;20884;-78
2022/09/08 03:37:42;;;;;;;5.00;3.37;;;19.80;99.90;;;;;;5098978;28;20471;-78
2022/09/08 03:40:12;;;;;;;3.50;3.03;;;19.80;99.90;;;;;;5097995;28;20826;-77
2022/09/08 03:42:41;;;;;;;4.73;3.83;;;19.80;99.90;;;;;;5098160;28;20489;-77
2022/09/08 03:45:12;;;;;;;5.80;3.70;;;19.80;99.90;;;;;;5099066;28;20450;-78
2022/09/08 03:47:40;;;;;;;6.30;3.13;;;19.80;99.90;;;;;;5098467;28;20469;-77
2022/09/08 03:50:08;;;;;;;4.13;2.97;;;19.80;99.90;;;;;;5099545;28;20473;-78
2022/09/08 03:52:34;;;;;;;4.70;3.60;;;19.70;99.90;;;;;;5097716;28;20449;-78
2022/09/08 03:55:01;;;;;;;4.83;3.00;;;19.70;99.90;;;;;;5096003;28;20471;-77
2022/09/08 03:57:29;;;;;;;2.83;2.40;;;19.80;99.90;;;;;;5100114;28;22174;-78
2022/09/08 03:59:59;;;;;;;6.23;3.40;;;19.70;99.90;;;;;;5099551;28;20995;-78
2022/09/08 04:02:29;;;;;;;8.53;3.20;;;19.70;99.90;;;;;;5098401;28;21021;-78
2022/09/08 04:04:57;;;;;;;3.83;2.63;;;19.60;99.90;;;;;;5102005;28;20450;-78
2022/09/08 04:07:27;;;;;;;4.53;2.97;;;19.70;99.90;;;;;;5107489;28;20559;-78
2022/09/08 04:09:54;;;;;;;6.00;2.67;;;19.60;99.90;;;;;;5097199;28;20456;-78
2022/09/08 04:12:21;;;;;;;3.50;1.97;;;19.70;99.90;;;;;;5092700;28;20446;-78
2022/09/08 04:14:49;;;;;;;4.13;2.50;;;19.60;99.90;;;;;;5092995;28;20458;-77
2022/09/08 04:17:17;;;;;;;3.77;2.20;;;19.60;99.90;;;;;;5088804;28;20878;-77
2022/09/08 04:19:47;;;;;;;5.50;2.37;;;19.60;99.90;;;;;;5092231;28;20544;-77
2022/09/08 04:22:14;;;;;;;3.93;2.00;;;19.70;99.90;;;;;;5095136;28;20514;-77
2022/09/08 04:24:41;;;;;;;3.40;1.93;;;19.70;99.90;;;;;;5095596;28;21032;-77
2022/09/08 04:27:07;;;;;;;3.57;1.90;;;19.60;99.90;;;;;;5098535;28;20561;-77
2022/09/08 04:29:35;;;;;;;3.77;1.77;;;19.70;99.90;;;;;;5097874;28;20485;-77
2022/09/08 04:32:02;;;;;;;3.10;1.80;;;19.70;99.90;;;;;;5095422;28;20980;-77
2022/09/08 04:34:29;;;;;;;5.03;1.97;;;19.70;99.90;;;;;;5096158;28;21146;-77
2022/09/08 04:36:58;;;;;;;4.13;1.83;;;19.70;99.90;;;;;;5096487;28;20477;-77
2022/09/08 04:39:24;;;;;;;4.33;2.30;;;19.70;99.90;;;;;;5096904;28;20849;-77
2022/09/08 04:41:51;;;;;;;3.93;1.60;;;19.60;99.90;;;;;;5097852;28;20452;-77
2022/09/08 04:44:18;;;;;;;2.80;1.87;;;19.70;99.90;;;;;;5094659;28;21040;-77
2022/09/08 04:46:45;;;;;;;2.63;1.60;;;19.70;99.90;;;;;;5095528;28;20473;-77
2022/09/08 04:49:12;;;;;;;3.30;2.50;;;19.70;99.90;;;;;;5115828;22;20454;-85
2022/09/08 04:51:39;;;;;;;3.07;2.10;;;19.80;99.90;;;;;;5048973;28;20483;-85
2022/09/08 04:54:09;;;;;;;3.03;1.80;;;19.80;99.90;;;;;;5047368;28;20535;-85
2022/09/08 04:56:36;;;;;;;4.57;2.37;;;19.80;99.90;;;;;;5053400;28;20491;-86
2022/09/08 04:59:04;;;;;;;4.40;1.90;;;19.80;99.90;;;;;;5056990;28;20459;-86
2022/09/08 05:01:33;;;;;;;4.73;2.63;;;19.70;99.90;;;;;;5055987;28;20455;-87
2022/09/08 05:04:01;;;;;;;5.10;2.60;;;19.70;99.90;;;;;;5054774;28;20488;-86
2022/09/08 05:06:29;;;;;;;4.50;2.50;;;19.70;99.90;;;;;;5048535;28;20544;-86
2022/09/08 05:08:57;;;;;;;4.90;2.93;;;19.50;99.90;;;;;;5050134;28;20445;-87
2022/09/08 05:11:27;;;;;;;4.00;2.60;;;19.40;99.90;;;;;;5057977;28;20693;-86
2022/09/08 05:13:54;;;;;;;5.43;2.80;;;19.20;99.90;;;;;;5063534;28;20448;-86
2022/09/08 05:16:24;;;;;;;4.93;2.80;;;19.20;99.90;;;;;;5061510;28;20486;-87
2022/09/08 05:18:53;;;;;;;5.10;2.70;;;19.10;99.90;;;;;;5051732;28;20543;-87
2022/09/08 05:21:20;;;;;;;6.57;2.60;;;19.10;99.90;;;;;;5058629;28;20947;-86
2022/09/08 05:23:49;;;;;;;4.20;2.77;;;19.00;99.90;;;;;;5062461;28;20494;-87
2022/09/08 05:26:17;;;;;;;5.80;3.13;;;18.90;99.90;;;;;;5063324;28;20455;-84
2022/09/08 05:28:46;;;;;;;5.87;3.43;;;18.90;99.90;;;;;;5062937;28;20448;-85
2022/09/08 05:31:15;;;;;;;5.63;2.97;;;18.80;99.90;;;;;;5060963;28;20555;-86
2022/09/08 05:33:41;;;;;;;4.90;3.30;;;18.70;99.90;;;;;;5060178;28;20458;-87
2022/09/08 05:36:13;;;;;;;5.37;3.43;;;18.70;99.90;;;;;;5060657;28;20454;-85
2022/09/08 05:38:40;;;;;;;5.20;3.30;;;18.70;99.90;;;;;;5060532;28;20447;-86
2022/09/08 05:41:09;;;;;;;3.83;3.07;;;18.60;99.90;;;;;;5059618;28;21079;-85
2022/09/08 05:43:36;;;;;;;6.63;3.03;;;18.60;99.90;;;;;;5060175;28;20899;-86
2022/09/08 05:46:04;;;;;;;7.77;4.00;;;18.60;99.90;;;;;;5060675;28;20527;-84
2022/09/08 05:48:31;;;;;;;7.17;3.77;;;18.50;99.90;;;;;;5059199;28;20463;-84
2022/09/08 05:50:58;;;;;;;6.10;3.20;;;18.30;99.90;;;;;;5055176;28;20489;-85
2022/09/08 05:53:26;;;;;;;7.37;3.43;;;18.30;99.90;;;;;;5054568;28;20462;-84
2022/09/08 05:56:01;;;;;;;4.13;3.33;;;18.30;99.90;;;;;;5042107;28;20755;-84
2022/09/08 05:58:29;;;;;;;4.60;3.17;;;18.20;99.90;;;;;;5035862;28;20433;-83
2022/09/08 06:00:57;;;;;;;6.80;3.70;;;18.20;99.90;;;;;;5054512;28;20486;-83
2022/09/08 06:03:26;;;;;;;4.63;3.97;;;18.20;99.90;;;;;;5054236;28;20498;-83
2022/09/08 06:05:53;;;;;;;5.53;3.50;;;18.20;99.90;;;;;;5053833;28;20454;-85
2022/09/08 06:08:21;;;;;;;4.70;3.50;;;18.20;99.90;;;;;;5054564;28;20893;-84
2022/09/08 06:10:51;;;;;;;5.07;3.43;;;18.20;99.90;;;;;;5053413;28;20479;-84
2022/09/08 06:13:21;;;;;;;4.93;3.40;;;18.20;99.90;;;;;;5052612;28;20460;-84
2022/09/08 06:15:49;;;;;;;4.53;3.50;;;18.30;99.90;;;;;;5053878;28;20827;-84
2022/09/08 06:18:16;;;;;;;4.77;3.13;;;18.20;99.90;;;;;;5054096;28;20555;-84
2022/09/08 06:20:44;;;;;;;6.90;3.70;;;18.20;99.90;;;;;;5053540;28;20855;-85
2022/09/08 06:23:12;;;;;;;3.87;3.47;;;18.20;99.90;;;;;;5052832;28;20464;-86
2022/09/08 06:25:43;;;;;;;4.90;3.60;;;18.20;99.90;;;;;;5052622;28;20454;-85
2022/09/08 06:28:29;;;;;;;4.77;3.23;;;18.10;99.90;;;;;;5053218;28;20455;-83
2022/09/08 06:30:57;;;;;;;8.50;4.47;;;18.00;99.90;;;;;;5040717;28;20481;-85
2022/09/08 06:33:31;;;;;;;4.47;3.37;;;17.90;99.90;;;;;;5052765;28;20950;-85
2022/09/08 06:36:11;;;;;;;5.87;3.23;;;17.90;99.90;;;;;;5052916;28;20477;-84
2022/09/08 06:38:44;;;;;;;4.40;4.00;;;18.00;99.90;;;;;;5053317;28;20458;-85
2022/09/08 06:41:15;;;;;;;6.80;4.20;;;18.00;99.90;;;;;;5042932;28;20489;-84
2022/09/08 06:43:45;;;;;;;8.70;4.30;;;18.00;99.90;;;;;;5057457;28;20572;-86
2022/09/08 06:46:18;;;;;;;6.30;4.33;;;18.00;99.90;;;;;;5041000;28;20522;-85
2022/09/08 06:48:45;;;;;;;7.23;4.60;;;18.00;99.90;;;;;;5056413;28;20485;-86
2022/09/08 06:51:35;;;;;;;9.20;3.80;;;18.00;99.90;;;;;;5060117;28;20488;-86
2022/09/08 06:54:22;;;;;;;6.53;4.50;;;18.00;99.90;;;;;;5059605;28;20453;-85
2022/09/08 06:56:58;;;;;;;7.53;4.70;;;18.00;99.90;;;;;;5058941;28;21064;-86
2022/09/08 06:59:41;;;;;;;6.47;4.10;;;17.90;99.90;;;;;;5038655;28;20529;-83
2022/09/08 07:02:31;;;;;;;5.83;4.40;;;18.00;99.90;;;;;;5055089;28;20446;-82
2022/09/08 07:05:01;;;;;;;6.50;5.30;;;17.90;99.90;;;;;;5058705;28;20484;-83
2022/09/08 07:07:37;;;;;;;6.63;5.93;;;17.90;99.90;;;;;;5059247;28;20453;-84
2022/09/08 07:10:10;;;;;;;6.30;4.20;;;17.80;99.90;;;;;;5059608;28;20533;-83
2022/09/08 07:12:43;;;;;;;7.03;5.03;;;17.90;99.90;;;;;;5058412;28;20529;-83
2022/09/08 07:15:25;;;;;;;5.90;5.27;;;18.00;99.90;;;;;;5058288;28;20469;-83
2022/09/08 07:17:57;;;;;;;10.03;5.00;;;17.90;99.90;;;;;;5058819;28;20436;-85
2022/09/08 07:20:28;;;;;;;6.43;5.50;;;17.90;99.90;;;;;;5057922;28;21066;-85
2022/09/08 07:23:01;;;;;;;10.07;6.43;;;17.90;99.90;;;;;;5055965;28;20940;-88
2022/09/08 07:25:33;;;;;;;6.70;4.83;;;17.90;99.90;;;;;;5046102;28;20479;-85
2022/09/08 07:28:09;;;;;;;6.33;5.63;;;17.90;99.90;;;;;;5054289;28;20455;-84
2022/09/08 07:30:37;;;;;;;7.43;6.50;;;17.90;99.90;;;;;;5053613;28;20554;-84
2022/09/08 07:33:14;;;;;;;7.43;6.30;;;17.90;99.90;;;;;;5047884;28;20980;-85
2022/09/08 07:35:50;;;;;;;6.87;5.87;;;17.90;99.90;;;;;;5046745;28;20464;-84
2022/09/08 07:38:26;;;;;;;7.50;5.50;;;17.90;99.90;;;;;;5053435;28;20459;-85
2022/09/08 07:40:56;;;;;;;8.30;5.70;;;18.00;99.90;;;;;;5051099;28;21026;-84
2022/09/08 07:43:24;;;;;;;8.63;5.10;;;18.00;99.90;;;;;;5049649;28;20461;-85
2022/09/08 07:46:02;;;;;;;8.10;6.60;;;18.00;99.90;;;;;;5057443;28;20489;-85
2022/09/08 07:48:34;;;;;;;8.20;7.30;;;17.90;99.90;;;;;;5056113;28;20449;-84
2022/09/08 07:51:10;;;;;;;7.00;6.00;;;18.00;99.90;;;;;;5052164;28;20532;-85
2022/09/08 07:54:06;;;;;;;8.93;8.00;;;18.00;99.90;;;;;;5035930;28;20533;-86
2022/09/08 07:56:40;;;;;;;9.93;9.00;;;17.80;99.90;;;;;;5056377;28;20465;-85
2022/09/08 07:59:19;;;;;;;18.20;13.27;;;17.70;99.90;;;;;;5052997;28;21021;-85
2022/09/08 08:01:56;;;;;;;13.70;11.83;;;17.50;99.90;;;;;;5046334;28;20460;-85
2022/09/08 08:04:54;;;;;;;11.77;10.23;;;17.50;99.90;;;;;;5046034;28;20574;-84
2022/09/08 08:07:26;;;;;;;10.73;7.93;;;17.40;99.90;;;;;;5055570;28;20582;-83
2022/09/08 08:10:02;;;;;;;8.67;7.20;;;17.30;99.90;;;;;;5055013;28;20842;-84
2022/09/08 08:12:36;;;;;;;9.70;7.37;;;17.20;99.90;;;;;;5042578;28;20539;-86
2022/09/08 08:15:12;;;;;;;9.00;7.27;;;17.30;99.90;;;;;;5051281;28;20455;-84
2022/09/08 08:17:47;;;;;;;8.70;7.70;;;17.20;99.90;;;;;;5050331;28;20456;-83
2022/09/08 08:20:32;;;;;;;16.30;8.00;;;17.20;99.90;;;;;;5049532;28;20483;-83
2022/09/08 08:23:22;;;;;;;9.10;5.70;;;17.20;99.90;;;;;;5043854;28;20835;-87
2022/09/08 08:25:59;;;;;;;7.50;6.73;;;17.30;99.90;;;;;;5047688;28;20487;-83
2022/09/08 08:28:25;;;;;;;9.00;6.67;;;17.20;99.90;;;;;;5055272;28;20459;-83
2022/09/08 08:31:05;;;;;;;9.53;8.30;;;17.10;99.90;;;;;;5042798;28;20479;-84
2022/09/08 08:33:36;;;;;;;10.33;7.97;;;17.20;99.90;;;;;;5041082;28;20535;-86
2022/09/08 08:36:33;;;;;;;9.33;7.30;;;17.10;99.90;;;;;;5054489;28;20494;-83
2022/09/08 08:39:12;;;;;;;11.90;8.20;;;17.10;99.90;;;;;;5056257;28;20539;-84
2022/09/08 08:41:57;;;;;;;9.17;5.90;;;17.20;99.90;;;;;;5050364;28;20460;-85
2022/09/08 08:44:39;;;;;;;9.83;8.13;;;17.20;99.90;;;;;;5060100;28;20846;-84
2022/09/08 08:47:45;;;;;;;10.70;7.20;;;17.20;99.90;;;;;;5053184;28;20476;-85
2022/09/08 08:50:26;;;;;;;11.90;7.30;;;17.30;99.90;;;;;;5044846;28;20501;-84
2022/09/08 08:53:13;;;;;;;9.17;5.97;;;17.30;99.90;;;;;;5049808;28;20459;-82
2022/09/08 08:55:50;;;;;;;7.93;5.70;;;17.40;99.90;;;;;;5052668;28;20582;-84
2022/09/08 08:58:55;;;;;;;11.47;8.03;;;17.50;99.90;;;;;;5047291;28;20448;-82
2022/09/08 09:01:39;;;;;;;6.70;5.90;;;17.50;99.90;;;;;;5040546;28;20490;-85
2022/09/08 09:04:36;;;;;;;9.10;5.80;;;17.50;99.90;;;;;;5053314;28;21016;-85
2022/09/08 09:07:35;;;;;;;13.07;7.33;;;17.50;99.90;;;;;;5043280;28;20555;-84
2022/09/08 09:10:18;;;;;;;16.87;8.70;;;17.50;99.90;;;;;;5049460;28;20474;-85
2022/09/08 09:12:58;;;;;;;11.13;8.90;;;17.40;99.90;;;;;;5039799;28;20468;-84
2022/09/08 09:15:51;;;;;;;10.77;8.10;;;17.50;99.90;;;;;;5057029;28;20457;-83
2022/09/08 09:19:03;;;;;;;11.23;8.27;;;17.50;99.90;;;;;;5045341;28;20456;-83
2022/09/08 09:21:48;;;;;;;11.33;9.80;;;17.50;99.90;;;;;;5052958;28;20456;-84
2022/09/08 09:24:21;;;;;;;13.63;10.67;;;17.60;99.90;;;;;;5035980;28;20492;-84
2022/09/08 09:26:53;;;;;;;12.73;11.00;;;17.70;99.90;;;;;;5049469;28;20455;-83
2022/09/08 09:29:25;;;;;;;12.60;11.30;;;17.70;99.90;;;;;;5056470;28;20483;-82
2022/09/08 09:32:40;;;;;;;17.23;11.80;;;17.60;99.90;;;;;;5053094;28;20820;-83
2022/09/08 09:35:39;;;;;;;12.13;10.77;;;17.80;99.90;;;;;;5018862;28;20441;-84
2022/09/08 09:38:40;;;;;;;11.77;9.20;;;17.90;99.90;;;;;;5036033;28;20967;-84
2022/09/08 09:41:45;;;;;;;9.80;8.70;;;18.00;99.90;;;;;;5043626;28;20486;-85
2022/09/08 09:44:26;;;;;;;12.53;8.77;;;18.00;99.90;;;;;;5051695;28;20513;-83
2022/09/08 09:47:20;;;;;;;11.10;9.53;;;18.00;99.90;;;;;;5055983;28;20907;-83
2022/09/08 09:50:27;;;;;;;9.20;8.20;;;18.10;99.90;;;;;;5055027;28;20480;-84
2022/09/08 09:53:09;;;;;;;7.67;6.07;;;18.10;99.90;;;;;;5055462;28;21003;-83
2022/09/08 09:56:14;;;;;;;7.60;6.20;;;18.20;99.90;;;;;;5055427;28;20438;-83
2022/09/08 09:59:05;;;;;;;6.47;5.83;;;18.10;99.90;;;;;;5032285;28;20469;-84
2022/09/08 10:01:59;;;;;;;12.00;7.27;;;18.40;99.90;;;;;;5056944;28;20457;-83
2022/09/08 10:04:53;;;;;;;8.07;6.50;;;18.50;99.90;;;;;;5049941;28;20486;-84
2022/09/08 10:07:52;;;;;;;6.43;4.93;;;18.80;99.90;;;;;;5053744;28;20445;-84
2022/09/08 10:10:42;;;;;;;7.10;4.50;;;18.90;99.90;;;;;;5037084;28;20477;-83
2022/09/08 10:13:41;;;;;;;4.37;3.50;;;19.00;99.90;;;;;;5052686;28;20453;-82
2022/09/08 10:16:38;;;;;;;5.67;2.77;;;19.00;99.90;;;;;;5053838;28;20460;-83
2022/09/08 10:19:28;;;;;;;5.63;3.67;;;18.90;99.90;;;;;;5040935;28;20921;-85
2022/09/08 10:22:31;;;;;;;6.40;3.53;;;18.90;99.90;;;;;;5061183;28;20467;-84
2022/09/08 10:25:32;;;;;;;8.30;4.13;;;19.30;99.90;;;;;;5056689;28;20475;-84
2022/09/08 10:28:36;;;;;;;3.67;3.20;;;19.40;99.90;;;;;;5058005;28;20507;-83
2022/09/08 10:31:33;;;;;;;8.37;3.20;;;19.70;99.90;;;;;;5055782;28;20473;-82
2022/09/08 10:34:31;;;;;;;5.40;3.33;;;19.70;99.90;;;;;;5054844;28;20976;-83
2022/09/08 10:37:04;;;;;;;3.57;2.40;;;19.80;99.90;;;;;;4982709;28;20456;-84
2022/09/08 10:39:53;;;;;;;4.53;2.90;;;19.90;99.90;;;;;;5037296;28;20494;-82
2022/09/08 10:42:44;;;;;;;5.00;2.13;;;19.90;99.90;;;;;;5055022;28;20484;-84
2022/09/08 10:45:34;;;;;;;8.03;2.33;;;20.20;99.90;;;;;;5054245;28;20483;-83
2022/09/08 10:48:43;;;;;;;7.60;2.53;;;20.70;99.90;;;;;;5051830;28;20466;-82
2022/09/08 10:51:36;;;;;;;3.43;1.70;;;21.10;99.90;;;;;;5049012;28;20476;-85
2022/09/08 10:54:19;;;;;;;5.00;1.90;;;21.40;99.90;;;;;;5052111;28;20451;-83
2022/09/08 10:56:48;;;;;;;2.80;1.70;;;21.80;99.90;;;;;;5079866;22;20951;-76
2022/09/08 10:59:44;;;;;;;5.40;2.10;;;21.90;99.90;;;;;;5051351;28;20458;-79
2022/09/08 11:02:32;;;;;;;2.93;1.70;;;21.40;99.90;;;;;;5064179;28;20458;-79
2022/09/08 11:05:35;;;;;;;4.97;2.00;;;21.10;99.90;;;;;;5063851;28;20483;-77
2022/09/08 11:08:31;;;;;;;7.00;1.70;;;20.70;99.90;;;;;;5031159;28;20495;-78
2022/09/08 11:11:27;;;;;;;5.07;2.43;;;20.50;99.90;;;;;;5046772;28;20550;-80
2022/09/08 11:14:03;;;;;;;2.77;1.30;;;20.70;99.90;;;;;;5057696;28;20477;-78
2022/09/08 11:17:05;;;;;;;4.47;1.60;;;21.30;99.90;;;;;;5044578;28;20534;-79
2022/09/08 11:19:39;;;;;;;4.20;1.87;;;21.20;99.90;;;;;;5052194;28;20451;-78
2022/09/08 11:22:28;;;;;;;3.00;1.10;;;21.60;99.90;;;;;;5045075;28;21036;-78
2022/09/08 11:25:12;;;;;;;6.23;1.40;;;22.40;99.90;;;;;;5036899;28;20476;-79
2022/09/08 11:27:44;;;;;;;2.83;1.10;;;22.90;99.90;;;;;;5039597;28;20472;-79
2022/09/08 11:30:19;;;;;;;2.53;1.10;;;23.40;99.90;;;;;;5044311;28;21155;-80
2022/09/08 11:32:57;;;;;;;3.13;1.00;;;23.80;99.90;;;;;;5038949;28;20452;-78
2022/09/08 11:35:58;;;;;;;3.10;1.13;;;23.90;99.90;;;;;;5041548;28;20445;-80
2022/09/08 11:38:55;;;;;;;6.10;1.10;;;24.00;99.90;;;;;;5049655;28;20886;-79
2022/09/08 11:41:43;;;;;;;3.60;1.30;;;24.40;99.90;;;;;;5051164;28;20456;-81
2022/09/08 11:44:34;;;;;;;6.60;1.27;;;24.80;99.90;;;;;;5040613;28;20525;-79
2022/09/08 11:47:37;;;;;;;2.60;1.00;;;25.20;99.90;;;;;;5038268;28;20465;-77
2022/09/08 11:50:32;;;;;;;2.20;1.10;;;25.00;99.90;;;;;;5057466;28;20454;-78
2022/09/08 11:53:32;;;;;;;2.47;0.90;;;24.60;99.90;;;;;;5042881;28;20453;-78
2022/09/08 11:56:14;;;;;;;3.50;1.10;;;24.50;99.90;;;;;;5028610;28;20476;-79
2022/09/08 11:58:57;;;;;;;7.97;1.40;;;23.70;99.90;;;;;;5047331;28;20441;-79
2022/09/08 12:01:39;;;;;;;8.20;1.50;;;23.20;99.90;;;;;;5047931;28;20448;-81
2022/09/08 12:04:30;;;;;;;3.07;1.87;;;23.50;99.90;;;;;;5039494;28;20451;-79
2022/09/08 12:07:26;;;;;;;3.50;1.03;;;24.30;99.90;;;;;;5064429;28;20513;-80
2022/09/08 12:10:17;;;;;;;1.90;0.83;;;25.00;99.90;;;;;;5069056;28;20507;-79
2022/09/08 12:12:59;;;;;;;3.03;1.00;;;25.80;99.90;;;;;;5059761;28;20457;-80
2022/09/08 12:16:05;;;;;;;3.33;1.10;;;26.10;99.90;;;;;;5055306;28;20475;-79
2022/09/08 12:18:48;;;;;;;2.50;1.00;;;26.40;99.90;;;;;;4986479;28;20466;-80
2022/09/08 12:21:34;;;;;;;3.33;1.00;;;26.80;99.90;;;;;;5048016;28;20444;-79
2022/09/08 12:24:17;;;;;;;3.07;0.90;;;27.00;99.90;;;;;;5050106;28;20445;-79
2022/09/08 12:26:57;;;;;;;3.53;1.00;;;27.00;99.90;;;;;;5048249;28;20487;-79
2022/09/08 12:29:52;;;;;;;4.40;1.10;;;27.10;99.90;;;;;;5061706;28;20456;-80
2022/09/08 12:32:53;;;;;;;2.37;1.03;;;27.20;99.90;;;;;;5039374;28;20459;-78
2022/09/08 12:35:35;;;;;;;2.80;0.80;;;27.80;99.90;;;;;;5041320;28;20449;-79
2022/09/08 12:38:41;;;;;;;3.70;1.20;;;28.00;99.90;;;;;;5027814;28;20957;-80
2022/09/08 12:41:30;;;;;;;2.90;0.90;;;27.80;99.90;;;;;;5037055;28;20453;-78
2022/09/08 12:44:08;;;;;;;1.93;0.70;;;27.40;99.90;;;;;;5056472;28;20447;-79
2022/09/08 12:46:53;;;;;;;2.40;0.97;;;26.50;99.90;;;;;;5039878;28;20511;-79
2022/09/08 12:49:43;;;;;;;2.50;1.00;;;26.20;99.90;;;;;;5020547;28;20459;-78
2022/09/08 12:52:19;;;;;;;3.97;1.00;;;26.90;99.90;;;;;;5040009;28;20457;-79
2022/09/08 12:54:58;;;;;;;2.73;1.00;;;27.20;99.90;;;;;;5040132;28;20631;-78
2022/09/08 12:57:50;;;;;;;2.53;1.07;;;27.80;99.90;;;;;;5020504;28;20494;-80
2022/09/08 13:00:22;;;;;;;2.87;0.80;;;27.90;99.90;;;;;;5040645;28;20474;-80
2022/09/08 13:03:09;;;;;;;3.67;0.90;;;27.70;99.90;;;;;;5020676;28;20453;-80
2022/09/08 13:06:10;;;;;;;2.27;0.80;;;26.70;99.90;;;;;;5053715;28;20483;-77
2022/09/08 13:08:54;;;;;;;3.43;1.30;;;26.00;99.90;;;;;;5035046;28;20454;-80
2022/09/08 13:11:31;;;;;;;5.17;1.10;;;25.30;99.90;;;;;;5040346;28;20448;-77
2022/09/08 13:14:15;;;;;;;2.63;1.00;;;25.20;99.90;;;;;;5039876;28;20455;-78
2022/09/08 13:16:51;;;;;;;4.63;1.00;;;24.80;99.90;;;;;;5037913;28;20468;-79
2022/09/08 13:19:26;;;;;;;2.83;0.90;;;24.60;99.90;;;;;;5019585;28;20452;-79
2022/09/08 13:22:14;;;;;;;2.50;0.80;;;24.30;99.90;;;;;;5022932;28;20459;-79
2022/09/08 13:24:48;;;;;;;3.33;1.00;;;24.70;99.90;;;;;;5038866;28;20455;-77
2022/09/08 13:27:28;;;;;;;4.13;0.90;;;25.40;99.90;;;;;;5045269;28;20484;-78
2022/09/08 13:30:09;;;;;;;3.53;1.10;;;25.40;99.90;;;;;;5062250;28;20530;-80
2022/09/08 13:33:01;;;;;;;3.50;1.10;;;25.10;99.90;;;;;;5046790;28;20457;-79
2022/09/08 13:35:42;;;;;;;2.87;0.90;;;24.80;99.90;;;;;;5046600;28;20548;-80
2022/09/08 13:38:31;;;;;;;3.77;1.00;;;24.50;99.90;;;;;;5067539;28;20524;-78
2022/09/08 13:41:08;;;;;;;3.00;0.90;;;24.10;99.90;;;;;;5048899;28;20488;-79